sensor_id;sensor_type;location;lat;lon;timestamp;P1;durP1;ratioP1;P2;durP2;ratioP2
7316;SDS011;3699;51.462;6.696;2023-04-24T00:00:37;4.10;;;2.37;;
7316;SDS011;3699;51.462;6.696;2023-04-24T00:03:05;1.80;;;1.70;;
7316;SDS011;3699;51.462;6.696;2023-04-24T00:05:32;3.87;;;1.87;;
7316;SDS011;3699;51.462;6.696;2023-04-24T00:08:01;1.70;;;1.60;;
7316;SDS011;3699;51.462;6.696;2023-04-24T00:10:28;1.80;;;1.70;;
7316;SDS011;3699;51.462;6.696;2023-04-24T00:12:55;3.13;;;1.77;;
7316;SDS011;3699;51.462;6.696;2023-04-24T00:15:22;2.20;;;2.00;;
7316;SDS011;3699;51.462;6.696;2023-04-24T00:17:48;2.30;;;1.80;;
7316;SDS011;3699;51.462;6.696;2023-04-24T00:20:15;2.37;;;2.03;;
7316;SDS011;3699;51.462;6.696;2023-04-24T00:22:42;2.50;;;2.13;;
7316;SDS011;3699;51.462;6.696;2023-04-24T00:25:10;6.23;;;2.20;;
7316;SDS011;3699;51.462;6.696;2023-04-24T00:27:37;2.50;;;2.30;;
7316;SDS011;3699;51.462;6.696;2023-04-24T00:30:04;2.57;;;2.37;;
7316;SDS011;3699;51.462;6.696;2023-04-24T00:32:31;4.73;;;2.40;;
7316;SDS011;3699;51.462;6.696;2023-04-24T00:34:58;3.13;;;2.83;;
7316;SDS011;3699;51.462;6.696;2023-04-24T00:37:25;3.37;;;2.60;;
7316;SDS011;3699;51.462;6.696;2023-04-24T00:39:52;5.87;;;2.80;;
7316;SDS011;3699;51.462;6.696;2023-04-24T00:42:20;4.30;;;3.17;;
7316;SDS011;3699;51.462;6.696;2023-04-24T00:44:47;10.07;;;3.47;;
7316;SDS011;3699;51.462;6.696;2023-04-24T00:47:14;3.90;;;3.50;;
7316;SDS011;3699;51.462;6.696;2023-04-24T00:49:41;4.07;;;3.17;;
7316;SDS011;3699;51.462;6.696;2023-04-24T00:52:07;5.00;;;3.10;;
7316;SDS011;3699;51.462;6.696;2023-04-24T00:54:35;4.00;;;3.53;;
7316;SDS011;3699;51.462;6.696;2023-04-24T00:57:02;4.27;;;3.50;;
7316;SDS011;3699;51.462;6.696;2023-04-24T00:59:31;8.20;;;4.43;;
7316;SDS011;3699;51.462;6.696;2023-04-24T01:01:58;8.37;;;4.20;;
7316;SDS011;3699;51.462;6.696;2023-04-24T01:04:25;5.87;;;4.10;;
7316;SDS011;3699;51.462;6.696;2023-04-24T01:06:52;6.00;;;3.93;;
7316;SDS011;3699;51.462;6.696;2023-04-24T01:09:20;5.40;;;4.30;;
7316;SDS011;3699;51.462;6.696;2023-04-24T01:11:49;5.00;;;4.20;;
7316;SDS011;3699;51.462;6.696;2023-04-24T01:14:16;6.33;;;4.63;;
7316;SDS011;3699;51.462;6.696;2023-04-24T01:16:44;5.73;;;4.67;;
7316;SDS011;3699;51.462;6.696;2023-04-24T01:19:11;6.50;;;5.30;;
7316;SDS011;3699;51.462;6.696;2023-04-24T01:21:40;6.47;;;5.00;;
7316;SDS011;3699;51.462;6.696;2023-04-24T01:24:10;6.50;;;5.50;;
7316;SDS011;3699;51.462;6.696;2023-04-24T01:26:37;12.67;;;6.10;;
7316;SDS011;3699;51.462;6.696;2023-04-24T01:29:04;8.63;;;5.70;;
7316;SDS011;3699;51.462;6.696;2023-04-24T01:31:31;6.93;;;5.57;;
7316;SDS011;3699;51.462;6.696;2023-04-24T01:33:59;9.17;;;6.30;;
7316;SDS011;3699;51.462;6.696;2023-04-24T01:36:26;10.10;;;6.30;;
7316;SDS011;3699;51.462;6.696;2023-04-24T01:38:54;12.03;;;6.33;;
7316;SDS011;3699;51.462;6.696;2023-04-24T01:41:22;10.27;;;6.10;;
7316;SDS011;3699;51.462;6.696;2023-04-24T01:43:50;9.17;;;6.77;;
7316;SDS011;3699;51.462;6.696;2023-04-24T01:46:17;8.07;;;6.07;;
7316;SDS011;3699;51.462;6.696;2023-04-24T01:48:45;11.27;;;6.30;;
7316;SDS011;3699;51.462;6.696;2023-04-24T01:51:12;6.87;;;6.10;;
7316;SDS011;3699;51.462;6.696;2023-04-24T01:53:39;9.17;;;5.93;;
7316;SDS011;3699;51.462;6.696;2023-04-24T01:56:06;8.93;;;5.67;;
7316;SDS011;3699;51.462;6.696;2023-04-24T01:58:34;9.83;;;6.33;;
7316;SDS011;3699;51.462;6.696;2023-04-24T02:01:02;8.03;;;6.10;;
7316;SDS011;3699;51.462;6.696;2023-04-24T02:03:29;12.13;;;6.63;;
7316;SDS011;3699;51.462;6.696;2023-04-24T02:05:55;7.10;;;6.00;;
7316;SDS011;3699;51.462;6.696;2023-04-24T02:08:22;6.43;;;5.57;;
7316;SDS011;3699;51.462;6.696;2023-04-24T02:10:49;7.10;;;6.00;;
7316;SDS011;3699;51.462;6.696;2023-04-24T02:13:16;8.47;;;6.63;;
7316;SDS011;3699;51.462;6.696;2023-04-24T02:15:44;7.17;;;5.90;;
7316;SDS011;3699;51.462;6.696;2023-04-24T02:18:10;12.10;;;8.20;;
7316;SDS011;3699;51.462;6.696;2023-04-24T02:20:37;10.43;;;7.27;;
7316;SDS011;3699;51.462;6.696;2023-04-24T02:23:04;9.53;;;6.83;;
7316;SDS011;3699;51.462;6.696;2023-04-24T02:25:31;8.43;;;7.30;;
7316;SDS011;3699;51.462;6.696;2023-04-24T02:27:58;19.27;;;9.23;;
7316;SDS011;3699;51.462;6.696;2023-04-24T02:30:25;11.60;;;8.20;;
7316;SDS011;3699;51.462;6.696;2023-04-24T02:32:53;12.13;;;8.43;;
7316;SDS011;3699;51.462;6.696;2023-04-24T02:35:20;10.80;;;7.27;;
7316;SDS011;3699;51.462;6.696;2023-04-24T02:37:47;14.67;;;9.10;;
7316;SDS011;3699;51.462;6.696;2023-04-24T02:40:13;13.53;;;9.57;;
7316;SDS011;3699;51.462;6.696;2023-04-24T02:42:40;16.53;;;8.57;;
7316;SDS011;3699;51.462;6.696;2023-04-24T02:45:07;14.47;;;9.20;;
7316;SDS011;3699;51.462;6.696;2023-04-24T02:47:35;14.23;;;9.77;;
7316;SDS011;3699;51.462;6.696;2023-04-24T02:50:03;17.27;;;9.80;;
7316;SDS011;3699;51.462;6.696;2023-04-24T02:52:30;13.43;;;9.83;;
7316;SDS011;3699;51.462;6.696;2023-04-24T02:54:57;15.33;;;9.87;;
7316;SDS011;3699;51.462;6.696;2023-04-24T02:57:24;16.90;;;10.43;;
7316;SDS011;3699;51.462;6.696;2023-04-24T02:59:51;22.27;;;10.80;;
7316;SDS011;3699;51.462;6.696;2023-04-24T03:02:18;15.80;;;10.37;;
7316;SDS011;3699;51.462;6.696;2023-04-24T03:04:45;14.90;;;10.13;;
7316;SDS011;3699;51.462;6.696;2023-04-24T03:07:14;16.60;;;11.03;;
7316;SDS011;3699;51.462;6.696;2023-04-24T03:09:41;23.27;;;11.63;;
7316;SDS011;3699;51.462;6.696;2023-04-24T03:12:08;18.13;;;11.33;;
7316;SDS011;3699;51.462;6.696;2023-04-24T03:14:35;20.47;;;11.30;;
7316;SDS011;3699;51.462;6.696;2023-04-24T03:17:01;19.43;;;10.90;;
7316;SDS011;3699;51.462;6.696;2023-04-24T03:19:28;19.60;;;11.07;;
7316;SDS011;3699;51.462;6.696;2023-04-24T03:21:55;16.03;;;11.53;;
7316;SDS011;3699;51.462;6.696;2023-04-24T03:24:23;15.20;;;11.43;;
7316;SDS011;3699;51.462;6.696;2023-04-24T03:26:52;18.53;;;11.33;;
7316;SDS011;3699;51.462;6.696;2023-04-24T03:29:21;19.77;;;11.70;;
7316;SDS011;3699;51.462;6.696;2023-04-24T03:31:48;17.17;;;11.20;;
7316;SDS011;3699;51.462;6.696;2023-04-24T03:34:15;26.37;;;12.80;;
7316;SDS011;3699;51.462;6.696;2023-04-24T03:36:42;17.63;;;11.13;;
7316;SDS011;3699;51.462;6.696;2023-04-24T03:39:09;18.33;;;11.47;;
7316;SDS011;3699;51.462;6.696;2023-04-24T03:41:37;19.17;;;10.77;;
7316;SDS011;3699;51.462;6.696;2023-04-24T03:44:04;20.67;;;12.13;;
7316;SDS011;3699;51.462;6.696;2023-04-24T03:46:31;20.13;;;11.60;;
7316;SDS011;3699;51.462;6.696;2023-04-24T03:48:58;20.83;;;11.97;;
7316;SDS011;3699;51.462;6.696;2023-04-24T03:51:24;18.60;;;11.30;;
7316;SDS011;3699;51.462;6.696;2023-04-24T03:53:52;20.90;;;11.97;;
7316;SDS011;3699;51.462;6.696;2023-04-24T03:56:19;14.63;;;11.33;;
7316;SDS011;3699;51.462;6.696;2023-04-24T03:58:47;17.50;;;11.07;;
7316;SDS011;3699;51.462;6.696;2023-04-24T04:01:14;21.13;;;10.73;;
7316;SDS011;3699;51.462;6.696;2023-04-24T04:03:41;18.50;;;11.33;;
7316;SDS011;3699;51.462;6.696;2023-04-24T04:06:09;22.90;;;11.83;;
7316;SDS011;3699;51.462;6.696;2023-04-24T04:08:38;16.43;;;11.33;;
7316;SDS011;3699;51.462;6.696;2023-04-24T04:11:05;23.23;;;11.50;;
7316;SDS011;3699;51.462;6.696;2023-04-24T04:13:31;17.63;;;11.70;;
7316;SDS011;3699;51.462;6.696;2023-04-24T04:16:00;14.40;;;10.63;;
7316;SDS011;3699;51.462;6.696;2023-04-24T04:18:26;17.90;;;11.10;;
7316;SDS011;3699;51.462;6.696;2023-04-24T04:20:53;16.43;;;11.37;;
7316;SDS011;3699;51.462;6.696;2023-04-24T04:23:21;18.27;;;11.33;;
7316;SDS011;3699;51.462;6.696;2023-04-24T04:25:48;19.83;;;12.17;;
7316;SDS011;3699;51.462;6.696;2023-04-24T04:28:16;15.03;;;10.50;;
7316;SDS011;3699;51.462;6.696;2023-04-24T04:30:44;22.60;;;12.40;;
7316;SDS011;3699;51.462;6.696;2023-04-24T04:33:13;15.33;;;10.50;;
7316;SDS011;3699;51.462;6.696;2023-04-24T04:35:40;17.23;;;11.03;;
7316;SDS011;3699;51.462;6.696;2023-04-24T04:38:07;15.27;;;10.47;;
7316;SDS011;3699;51.462;6.696;2023-04-24T04:40:35;16.83;;;9.83;;
7316;SDS011;3699;51.462;6.696;2023-04-24T04:43:02;13.90;;;9.37;;
7316;SDS011;3699;51.462;6.696;2023-04-24T04:45:29;17.13;;;11.17;;
7316;SDS011;3699;51.462;6.696;2023-04-24T04:47:57;14.53;;;10.73;;
7316;SDS011;3699;51.462;6.696;2023-04-24T04:50:27;15.60;;;10.23;;
7316;SDS011;3699;51.462;6.696;2023-04-24T04:52:53;16.63;;;10.63;;
7316;SDS011;3699;51.462;6.696;2023-04-24T04:55:21;11.10;;;9.27;;
7316;SDS011;3699;51.462;6.696;2023-04-24T04:57:48;18.30;;;11.03;;
7316;SDS011;3699;51.462;6.696;2023-04-24T05:00:15;14.03;;;9.70;;
7316;SDS011;3699;51.462;6.696;2023-04-24T05:02:42;14.93;;;9.27;;
7316;SDS011;3699;51.462;6.696;2023-04-24T05:05:09;16.83;;;9.93;;
7316;SDS011;3699;51.462;6.696;2023-04-24T05:07:38;12.27;;;9.13;;
7316;SDS011;3699;51.462;6.696;2023-04-24T05:10:05;14.53;;;9.13;;
7316;SDS011;3699;51.462;6.696;2023-04-24T05:12:32;13.03;;;9.37;;
7316;SDS011;3699;51.462;6.696;2023-04-24T05:14:59;13.27;;;9.50;;
7316;SDS011;3699;51.462;6.696;2023-04-24T05:17:26;15.23;;;9.37;;
7316;SDS011;3699;51.462;6.696;2023-04-24T05:19:52;13.10;;;8.33;;
7316;SDS011;3699;51.462;6.696;2023-04-24T05:22:19;13.83;;;8.10;;
7316;SDS011;3699;51.462;6.696;2023-04-24T05:24:48;11.97;;;9.13;;
7316;SDS011;3699;51.462;6.696;2023-04-24T05:27:14;14.50;;;8.70;;
7316;SDS011;3699;51.462;6.696;2023-04-24T05:29:42;12.33;;;8.73;;
7316;SDS011;3699;51.462;6.696;2023-04-24T05:32:09;11.43;;;9.00;;
7316;SDS011;3699;51.462;6.696;2023-04-24T05:34:36;12.23;;;8.93;;
7316;SDS011;3699;51.462;6.696;2023-04-24T05:37:03;13.00;;;9.60;;
7316;SDS011;3699;51.462;6.696;2023-04-24T05:39:33;12.17;;;9.10;;
7316;SDS011;3699;51.462;6.696;2023-04-24T05:42:01;10.67;;;8.87;;
7316;SDS011;3699;51.462;6.696;2023-04-24T05:44:29;12.53;;;8.97;;
7316;SDS011;3699;51.462;6.696;2023-04-24T05:46:56;18.60;;;11.00;;
7316;SDS011;3699;51.462;6.696;2023-04-24T05:49:23;16.23;;;9.27;;
7316;SDS011;3699;51.462;6.696;2023-04-24T05:51:50;14.13;;;8.67;;
7316;SDS011;3699;51.462;6.696;2023-04-24T05:54:17;12.00;;;8.47;;
7316;SDS011;3699;51.462;6.696;2023-04-24T05:56:43;12.43;;;9.17;;
7316;SDS011;3699;51.462;6.696;2023-04-24T05:59:12;14.07;;;9.30;;
7316;SDS011;3699;51.462;6.696;2023-04-24T06:01:39;17.70;;;9.57;;
7316;SDS011;3699;51.462;6.696;2023-04-24T06:04:06;11.87;;;10.03;;
7316;SDS011;3699;51.462;6.696;2023-04-24T06:06:32;13.43;;;9.07;;
7316;SDS011;3699;51.462;6.696;2023-04-24T06:09:00;12.53;;;8.93;;
7316;SDS011;3699;51.462;6.696;2023-04-24T06:11:27;13.90;;;9.73;;
7316;SDS011;3699;51.462;6.696;2023-04-24T06:13:54;16.27;;;9.97;;
7316;SDS011;3699;51.462;6.696;2023-04-24T06:16:22;13.47;;;9.73;;
7316;SDS011;3699;51.462;6.696;2023-04-24T06:18:49;14.30;;;9.90;;
7316;SDS011;3699;51.462;6.696;2023-04-24T06:21:16;15.13;;;9.80;;
7316;SDS011;3699;51.462;6.696;2023-04-24T06:23:43;12.13;;;8.97;;
7316;SDS011;3699;51.462;6.696;2023-04-24T06:26:11;12.07;;;8.73;;
7316;SDS011;3699;51.462;6.696;2023-04-24T06:28:38;10.10;;;8.40;;
7316;SDS011;3699;51.462;6.696;2023-04-24T06:31:05;10.30;;;7.90;;
7316;SDS011;3699;51.462;6.696;2023-04-24T06:33:33;10.13;;;7.33;;
7316;SDS011;3699;51.462;6.696;2023-04-24T06:35:59;12.30;;;6.77;;
7316;SDS011;3699;51.462;6.696;2023-04-24T06:38:26;9.80;;;7.63;;
7316;SDS011;3699;51.462;6.696;2023-04-24T06:40:54;8.27;;;6.63;;
7316;SDS011;3699;51.462;6.696;2023-04-24T06:43:21;9.90;;;6.67;;
7316;SDS011;3699;51.462;6.696;2023-04-24T06:45:48;7.37;;;6.63;;
7316;SDS011;3699;51.462;6.696;2023-04-24T06:48:15;11.90;;;6.37;;
7316;SDS011;3699;51.462;6.696;2023-04-24T06:50:43;8.27;;;7.10;;
7316;SDS011;3699;51.462;6.696;2023-04-24T06:53:10;9.80;;;6.53;;
7316;SDS011;3699;51.462;6.696;2023-04-24T06:55:39;7.73;;;6.07;;
7316;SDS011;3699;51.462;6.696;2023-04-24T06:58:06;8.00;;;5.80;;
7316;SDS011;3699;51.462;6.696;2023-04-24T07:00:33;7.17;;;5.60;;
7316;SDS011;3699;51.462;6.696;2023-04-24T07:02:59;5.63;;;5.03;;
7316;SDS011;3699;51.462;6.696;2023-04-24T07:05:27;7.87;;;5.17;;
7316;SDS011;3699;51.462;6.696;2023-04-24T07:07:56;6.30;;;4.87;;
7316;SDS011;3699;51.462;6.696;2023-04-24T07:10:23;5.10;;;4.60;;
7316;SDS011;3699;51.462;6.696;2023-04-24T07:12:52;5.90;;;5.00;;
7316;SDS011;3699;51.462;6.696;2023-04-24T07:15:19;6.07;;;3.93;;
7316;SDS011;3699;51.462;6.696;2023-04-24T07:17:45;4.17;;;3.60;;
7316;SDS011;3699;51.462;6.696;2023-04-24T07:20:12;3.27;;;2.97;;
7316;SDS011;3699;51.462;6.696;2023-04-24T07:22:40;2.73;;;2.50;;
7316;SDS011;3699;51.462;6.696;2023-04-24T07:25:09;2.10;;;2.00;;
7316;SDS011;3699;51.462;6.696;2023-04-24T07:27:36;2.30;;;1.80;;
7316;SDS011;3699;51.462;6.696;2023-04-24T07:30:03;2.43;;;2.23;;
7316;SDS011;3699;51.462;6.696;2023-04-24T07:32:30;2.20;;;2.00;;
7316;SDS011;3699;51.462;6.696;2023-04-24T07:34:57;2.80;;;2.00;;
7316;SDS011;3699;51.462;6.696;2023-04-24T07:37:24;2.47;;;1.90;;
7316;SDS011;3699;51.462;6.696;2023-04-24T07:39:50;2.73;;;2.47;;
7316;SDS011;3699;51.462;6.696;2023-04-24T07:42:19;2.30;;;2.10;;
7316;SDS011;3699;51.462;6.696;2023-04-24T07:44:45;2.10;;;1.90;;
7316;SDS011;3699;51.462;6.696;2023-04-24T07:47:12;1.83;;;1.70;;
7316;SDS011;3699;51.462;6.696;2023-04-24T07:49:40;2.23;;;2.10;;
7316;SDS011;3699;51.462;6.696;2023-04-24T07:52:07;1.77;;;1.67;;
7316;SDS011;3699;51.462;6.696;2023-04-24T07:54:35;1.80;;;1.70;;
7316;SDS011;3699;51.462;6.696;2023-04-24T07:57:02;2.27;;;2.07;;
7316;SDS011;3699;51.462;6.696;2023-04-24T07:59:30;1.93;;;1.77;;
7316;SDS011;3699;51.462;6.696;2023-04-24T08:01:57;1.77;;;1.67;;
7316;SDS011;3699;51.462;6.696;2023-04-24T08:04:24;2.33;;;2.07;;
7316;SDS011;3699;51.462;6.696;2023-04-24T08:06:51;2.83;;;1.90;;
7316;SDS011;3699;51.462;6.696;2023-04-24T08:09:17;2.13;;;1.80;;
7316;SDS011;3699;51.462;6.696;2023-04-24T08:11:44;1.73;;;1.40;;
7316;SDS011;3699;51.462;6.696;2023-04-24T08:14:11;1.80;;;1.70;;
7316;SDS011;3699;51.462;6.696;2023-04-24T08:16:41;3.13;;;1.67;;
7316;SDS011;3699;51.462;6.696;2023-04-24T08:19:08;1.80;;;1.70;;
7316;SDS011;3699;51.462;6.696;2023-04-24T08:21:35;1.90;;;1.80;;
7316;SDS011;3699;51.462;6.696;2023-04-24T08:24:02;2.07;;;1.97;;
7316;SDS011;3699;51.462;6.696;2023-04-24T08:26:32;1.77;;;1.67;;
7316;SDS011;3699;51.462;6.696;2023-04-24T08:28:59;2.17;;;2.07;;
7316;SDS011;3699;51.462;6.696;2023-04-24T08:31:26;3.30;;;1.80;;
7316;SDS011;3699;51.462;6.696;2023-04-24T08:33:54;3.80;;;2.13;;
7316;SDS011;3699;51.462;6.696;2023-04-24T08:36:21;2.20;;;2.00;;
7316;SDS011;3699;51.462;6.696;2023-04-24T08:38:48;2.10;;;1.90;;
7316;SDS011;3699;51.462;6.696;2023-04-24T08:41:15;1.60;;;1.50;;
7316;SDS011;3699;51.462;6.696;2023-04-24T08:43:44;1.60;;;1.50;;
7316;SDS011;3699;51.462;6.696;2023-04-24T08:46:13;1.20;;;1.20;;
7316;SDS011;3699;51.462;6.696;2023-04-24T08:48:41;1.30;;;1.30;;
7316;SDS011;3699;51.462;6.696;2023-04-24T08:51:09;1.43;;;1.33;;
7316;SDS011;3699;51.462;6.696;2023-04-24T08:53:36;1.60;;;1.50;;
7316;SDS011;3699;51.462;6.696;2023-04-24T08:56:04;1.20;;;1.20;;
7316;SDS011;3699;51.462;6.696;2023-04-24T08:58:31;2.03;;;1.83;;
7316;SDS011;3699;51.462;6.696;2023-04-24T09:00:58;3.43;;;3.13;;
7316;SDS011;3699;51.462;6.696;2023-04-24T09:03:26;3.63;;;3.13;;
7316;SDS011;3699;51.462;6.696;2023-04-24T09:05:54;6.17;;;5.47;;
7316;SDS011;3699;51.462;6.696;2023-04-24T09:08:23;7.07;;;5.87;;
7316;SDS011;3699;51.462;6.696;2023-04-24T09:10:51;8.80;;;6.57;;
7316;SDS011;3699;51.462;6.696;2023-04-24T09:13:18;8.00;;;6.60;;
7316;SDS011;3699;51.462;6.696;2023-04-24T09:15:45;10.80;;;6.60;;
7316;SDS011;3699;51.462;6.696;2023-04-24T09:18:12;11.03;;;6.40;;
7316;SDS011;3699;51.462;6.696;2023-04-24T09:23:26;7.27;;;6.17;;
7316;SDS011;3699;51.462;6.696;2023-04-24T09:25:54;7.20;;;5.87;;
7316;SDS011;3699;51.462;6.696;2023-04-24T09:28:25;7.67;;;5.47;;
7316;SDS011;3699;51.462;6.696;2023-04-24T09:31:02;8.50;;;6.63;;
7316;SDS011;3699;51.462;6.696;2023-04-24T09:33:30;8.60;;;6.27;;
7316;SDS011;3699;51.462;6.696;2023-04-24T09:35:57;10.13;;;6.47;;
7316;SDS011;3699;51.462;6.696;2023-04-24T09:38:31;10.23;;;6.93;;
7316;SDS011;3699;51.462;6.696;2023-04-24T09:40:59;11.07;;;7.30;;
7316;SDS011;3699;51.462;6.696;2023-04-24T09:43:28;8.50;;;6.40;;
7316;SDS011;3699;51.462;6.696;2023-04-24T09:45:55;8.57;;;6.10;;
7316;SDS011;3699;51.462;6.696;2023-04-24T09:48:30;12.43;;;7.33;;
7316;SDS011;3699;51.462;6.696;2023-04-24T09:50:57;8.07;;;6.37;;
7316;SDS011;3699;51.462;6.696;2023-04-24T09:53:25;13.07;;;7.10;;
7316;SDS011;3699;51.462;6.696;2023-04-24T09:55:54;10.03;;;5.93;;
7316;SDS011;3699;51.462;6.696;2023-04-24T09:58:24;9.93;;;6.43;;
7316;SDS011;3699;51.462;6.696;2023-04-24T10:00:53;10.43;;;5.60;;
7316;SDS011;3699;51.462;6.696;2023-04-24T10:03:23;8.60;;;6.40;;
7316;SDS011;3699;51.462;6.696;2023-04-24T10:05:51;13.67;;;7.10;;
7316;SDS011;3699;51.462;6.696;2023-04-24T10:08:18;10.53;;;6.53;;
7316;SDS011;3699;51.462;6.696;2023-04-24T10:10:46;9.83;;;5.40;;
7316;SDS011;3699;51.462;6.696;2023-04-24T10:13:14;13.90;;;5.87;;
7316;SDS011;3699;51.462;6.696;2023-04-24T10:15:41;7.23;;;4.90;;
7316;SDS011;3699;51.462;6.696;2023-04-24T10:18:09;7.10;;;4.37;;
7316;SDS011;3699;51.462;6.696;2023-04-24T10:20:38;11.67;;;5.63;;
7316;SDS011;3699;51.462;6.696;2023-04-24T10:23:06;10.80;;;5.20;;
7316;SDS011;3699;51.462;6.696;2023-04-24T10:25:34;7.57;;;5.40;;
7316;SDS011;3699;51.462;6.696;2023-04-24T10:28:02;9.20;;;5.40;;
7316;SDS011;3699;51.462;6.696;2023-04-24T10:30:31;14.23;;;5.33;;
7316;SDS011;3699;51.462;6.696;2023-04-24T10:33:00;12.50;;;5.33;;
7316;SDS011;3699;51.462;6.696;2023-04-24T10:35:27;9.23;;;4.87;;
7316;SDS011;3699;51.462;6.696;2023-04-24T10:37:58;10.93;;;6.13;;
7316;SDS011;3699;51.462;6.696;2023-04-24T10:40:30;10.93;;;5.27;;
7316;SDS011;3699;51.462;6.696;2023-04-24T10:42:58;12.27;;;4.73;;
7316;SDS011;3699;51.462;6.696;2023-04-24T10:45:25;10.70;;;5.53;;
7316;SDS011;3699;51.462;6.696;2023-04-24T10:47:54;8.83;;;5.20;;
7316;SDS011;3699;51.462;6.696;2023-04-24T10:50:25;10.83;;;4.17;;
7316;SDS011;3699;51.462;6.696;2023-04-24T10:52:52;12.33;;;4.93;;
7316;SDS011;3699;51.462;6.696;2023-04-24T10:58:13;16.23;;;5.40;;
7316;SDS011;3699;51.462;6.696;2023-04-24T11:00:41;12.80;;;5.80;;
7316;SDS011;3699;51.462;6.696;2023-04-24T11:03:23;11.23;;;4.87;;
7316;SDS011;3699;51.462;6.696;2023-04-24T11:05:53;13.93;;;5.23;;
7316;SDS011;3699;51.462;6.696;2023-04-24T11:08:25;14.53;;;5.97;;
7316;SDS011;3699;51.462;6.696;2023-04-24T11:10:57;11.00;;;4.83;;
7316;SDS011;3699;51.462;6.696;2023-04-24T11:13:27;14.57;;;5.63;;
7316;SDS011;3699;51.462;6.696;2023-04-24T11:16:15;10.47;;;5.77;;
7316;SDS011;3699;51.462;6.696;2023-04-24T11:18:51;10.13;;;5.73;;
7316;SDS011;3699;51.462;6.696;2023-04-24T11:21:19;12.67;;;5.40;;
7316;SDS011;3699;51.462;6.696;2023-04-24T11:23:46;6.57;;;4.53;;
7316;SDS011;3699;51.462;6.696;2023-04-24T11:26:17;8.57;;;4.63;;
7316;SDS011;3699;51.462;6.696;2023-04-24T11:28:45;13.43;;;5.57;;
7316;SDS011;3699;51.462;6.696;2023-04-24T11:34:08;8.47;;;4.70;;
7316;SDS011;3699;51.462;6.696;2023-04-24T11:36:35;5.60;;;4.40;;
7316;SDS011;3699;51.462;6.696;2023-04-24T11:39:03;12.50;;;4.37;;
7316;SDS011;3699;51.462;6.696;2023-04-24T11:41:30;11.80;;;4.67;;
7316;SDS011;3699;51.462;6.696;2023-04-24T11:43:57;9.67;;;4.50;;
7316;SDS011;3699;51.462;6.696;2023-04-24T11:46:26;5.83;;;4.27;;
7316;SDS011;3699;51.462;6.696;2023-04-24T11:48:54;9.30;;;3.87;;
7316;SDS011;3699;51.462;6.696;2023-04-24T11:51:23;6.50;;;5.00;;
7316;SDS011;3699;51.462;6.696;2023-04-24T11:53:51;8.63;;;4.33;;
7316;SDS011;3699;51.462;6.696;2023-04-24T11:56:19;9.40;;;4.70;;
7316;SDS011;3699;51.462;6.696;2023-04-24T11:58:47;8.73;;;4.20;;
7316;SDS011;3699;51.462;6.696;2023-04-24T12:01:14;7.57;;;4.97;;
7316;SDS011;3699;51.462;6.696;2023-04-24T12:03:41;8.67;;;4.77;;
7316;SDS011;3699;51.462;6.696;2023-04-24T12:06:11;9.43;;;4.37;;
7316;SDS011;3699;51.462;6.696;2023-04-24T12:08:40;8.70;;;4.00;;
7316;SDS011;3699;51.462;6.696;2023-04-24T12:11:07;9.33;;;5.57;;
7316;SDS011;3699;51.462;6.696;2023-04-24T12:13:34;6.83;;;4.00;;
7316;SDS011;3699;51.462;6.696;2023-04-24T12:16:01;5.63;;;4.33;;
7316;SDS011;3699;51.462;6.696;2023-04-24T12:18:29;7.30;;;3.63;;
7316;SDS011;3699;51.462;6.696;2023-04-24T12:23:47;5.93;;;3.60;;
7316;SDS011;3699;51.462;6.696;2023-04-24T12:26:17;6.77;;;3.63;;
7316;SDS011;3699;51.462;6.696;2023-04-24T12:28:46;5.67;;;2.97;;
7316;SDS011;3699;51.462;6.696;2023-04-24T12:31:14;7.87;;;3.03;;
7316;SDS011;3699;51.462;6.696;2023-04-24T12:33:41;6.03;;;3.57;;
7316;SDS011;3699;51.462;6.696;2023-04-24T12:36:09;3.40;;;2.70;;
7316;SDS011;3699;51.462;6.696;2023-04-24T12:38:37;4.23;;;2.73;;
7316;SDS011;3699;51.462;6.696;2023-04-24T12:41:08;4.07;;;2.90;;
7316;SDS011;3699;51.462;6.696;2023-04-24T12:43:35;4.20;;;3.03;;
7316;SDS011;3699;51.462;6.696;2023-04-24T12:46:03;3.93;;;2.70;;
7316;SDS011;3699;51.462;6.696;2023-04-24T12:48:30;3.73;;;2.70;;
7316;SDS011;3699;51.462;6.696;2023-04-24T12:51:03;3.57;;;2.43;;
7316;SDS011;3699;51.462;6.696;2023-04-24T12:53:30;2.40;;;2.17;;
7316;SDS011;3699;51.462;6.696;2023-04-24T12:55:57;5.37;;;3.03;;
7316;SDS011;3699;51.462;6.696;2023-04-24T12:58:25;3.50;;;2.13;;
7316;SDS011;3699;51.462;6.696;2023-04-24T13:00:52;4.10;;;2.50;;
7316;SDS011;3699;51.462;6.696;2023-04-24T13:03:19;5.20;;;2.03;;
7316;SDS011;3699;51.462;6.696;2023-04-24T13:05:47;2.87;;;1.63;;
7316;SDS011;3699;51.462;6.696;2023-04-24T13:08:14;4.90;;;1.87;;
7316;SDS011;3699;51.462;6.696;2023-04-24T13:10:41;3.47;;;1.80;;
7316;SDS011;3699;51.462;6.696;2023-04-24T13:13:08;3.30;;;1.70;;
7316;SDS011;3699;51.462;6.696;2023-04-24T13:15:36;1.73;;;1.47;;
7316;SDS011;3699;51.462;6.696;2023-04-24T13:18:03;4.77;;;1.70;;
7316;SDS011;3699;51.462;6.696;2023-04-24T13:20:30;4.50;;;2.23;;
7316;SDS011;3699;51.462;6.696;2023-04-24T13:22:56;2.90;;;1.80;;
7316;SDS011;3699;51.462;6.696;2023-04-24T13:25:23;3.43;;;2.63;;
7316;SDS011;3699;51.462;6.696;2023-04-24T13:27:50;2.03;;;1.80;;
7316;SDS011;3699;51.462;6.696;2023-04-24T13:30:17;5.17;;;1.80;;
7316;SDS011;3699;51.462;6.696;2023-04-24T13:32:45;6.20;;;1.87;;
7316;SDS011;3699;51.462;6.696;2023-04-24T13:35:12;7.43;;;1.90;;
7316;SDS011;3699;51.462;6.696;2023-04-24T13:37:39;3.57;;;1.80;;
7316;SDS011;3699;51.462;6.696;2023-04-24T13:40:06;4.07;;;1.90;;
7316;SDS011;3699;51.462;6.696;2023-04-24T13:42:34;4.20;;;2.27;;
7316;SDS011;3699;51.462;6.696;2023-04-24T13:45:01;6.17;;;2.00;;
7316;SDS011;3699;51.462;6.696;2023-04-24T13:47:28;3.03;;;2.03;;
7316;SDS011;3699;51.462;6.696;2023-04-24T13:49:57;2.73;;;1.70;;
7316;SDS011;3699;51.462;6.696;2023-04-24T13:52:24;5.77;;;2.13;;
7316;SDS011;3699;51.462;6.696;2023-04-24T13:54:51;2.50;;;2.30;;
7316;SDS011;3699;51.462;6.696;2023-04-24T13:57:18;5.43;;;2.17;;
7316;SDS011;3699;51.462;6.696;2023-04-24T13:59:45;2.60;;;1.83;;
7316;SDS011;3699;51.462;6.696;2023-04-24T14:02:12;3.60;;;1.80;;
7316;SDS011;3699;51.462;6.696;2023-04-24T14:04:38;8.57;;;3.07;;
7316;SDS011;3699;51.462;6.696;2023-04-24T14:07:06;3.97;;;2.10;;
7316;SDS011;3699;51.462;6.696;2023-04-24T14:09:34;3.90;;;1.93;;
7316;SDS011;3699;51.462;6.696;2023-04-24T14:12:01;2.80;;;1.90;;
7316;SDS011;3699;51.462;6.696;2023-04-24T14:14:28;6.53;;;2.20;;
7316;SDS011;3699;51.462;6.696;2023-04-24T14:16:55;3.77;;;2.13;;
7316;SDS011;3699;51.462;6.696;2023-04-24T14:19:22;2.53;;;2.17;;
7316;SDS011;3699;51.462;6.696;2023-04-24T14:21:49;2.90;;;2.10;;
7316;SDS011;3699;51.462;6.696;2023-04-24T14:24:18;5.07;;;2.13;;
7316;SDS011;3699;51.462;6.696;2023-04-24T14:26:44;4.30;;;1.90;;
7316;SDS011;3699;51.462;6.696;2023-04-24T14:29:11;2.10;;;1.90;;
7316;SDS011;3699;51.462;6.696;2023-04-24T14:31:38;3.20;;;2.10;;
7316;SDS011;3699;51.462;6.696;2023-04-24T14:34:05;2.60;;;2.00;;
7316;SDS011;3699;51.462;6.696;2023-04-24T14:36:50;3.63;;;2.20;;
7316;SDS011;3699;51.462;6.696;2023-04-24T14:39:20;4.60;;;3.27;;
7316;SDS011;3699;51.462;6.696;2023-04-24T14:41:48;4.20;;;2.33;;
7316;SDS011;3699;51.462;6.696;2023-04-24T14:44:14;4.67;;;3.10;;
7316;SDS011;3699;51.462;6.696;2023-04-24T14:46:41;4.00;;;3.17;;
7316;SDS011;3699;51.462;6.696;2023-04-24T14:49:08;3.03;;;2.77;;
7316;SDS011;3699;51.462;6.696;2023-04-24T14:51:37;5.83;;;2.87;;
7316;SDS011;3699;51.462;6.696;2023-04-24T14:54:04;7.50;;;2.93;;
7316;SDS011;3699;51.462;6.696;2023-04-24T14:56:32;5.80;;;2.43;;
7316;SDS011;3699;51.462;6.696;2023-04-24T14:58:59;2.70;;;2.43;;
7316;SDS011;3699;51.462;6.696;2023-04-24T15:01:26;5.20;;;2.60;;
7316;SDS011;3699;51.462;6.696;2023-04-24T15:03:52;2.83;;;2.43;;
7316;SDS011;3699;51.462;6.696;2023-04-24T15:06:20;3.87;;;2.10;;
7316;SDS011;3699;51.462;6.696;2023-04-24T15:08:47;2.97;;;2.13;;
7316;SDS011;3699;51.462;6.696;2023-04-24T15:11:14;4.27;;;2.30;;
7316;SDS011;3699;51.462;6.696;2023-04-24T15:13:42;3.83;;;2.40;;
7316;SDS011;3699;51.462;6.696;2023-04-24T15:16:10;7.03;;;2.20;;
7316;SDS011;3699;51.462;6.696;2023-04-24T15:18:36;4.60;;;2.27;;
7316;SDS011;3699;51.462;6.696;2023-04-24T15:21:03;2.50;;;2.00;;